sensor_id;sensor_type;location;lat;lon;timestamp;P1;durP1;ratioP1;P2;durP2;ratioP2
73113;SDS011;61301;51.956;5.876;2023-09-19T00:01:08;0.93;;;0.43;;
73113;SDS011;61301;51.956;5.876;2023-09-19T00:03:34;0.50;;;0.22;;
73113;SDS011;61301;51.956;5.876;2023-09-19T00:06:04;1.02;;;0.45;;
73113;SDS011;61301;51.956;5.876;2023-09-19T00:08:33;1.42;;;0.60;;
73113;SDS011;61301;51.956;5.876;2023-09-19T00:11:00;1.58;;;0.60;;
73113;SDS011;61301;51.956;5.876;2023-09-19T00:13:31;3.88;;;0.70;;
73113;SDS011;61301;51.956;5.876;2023-09-19T00:15:59;2.17;;;0.90;;
73113;SDS011;61301;51.956;5.876;2023-09-19T00:18:25;4.32;;;1.20;;
73113;SDS011;61301;51.956;5.876;2023-09-19T00:21:03;4.20;;;1.02;;
73113;SDS011;61301;51.956;5.876;2023-09-19T00:23:33;6.47;;;1.95;;
73113;SDS011;61301;51.956;5.876;2023-09-19T00:25:59;5.80;;;1.80;;
73113;SDS011;61301;51.956;5.876;2023-09-19T00:28:26;5.88;;;1.85;;
73113;SDS011;61301;51.956;5.876;2023-09-19T00:30:53;6.35;;;1.73;;
73113;SDS011;61301;51.956;5.876;2023-09-19T00:33:21;7.05;;;1.70;;
73113;SDS011;61301;51.956;5.876;2023-09-19T00:38:17;4.85;;;1.60;;
73113;SDS011;61301;51.956;5.876;2023-09-19T00:40:47;5.95;;;1.85;;
73113;SDS011;61301;51.956;5.876;2023-09-19T00:43:13;5.05;;;1.60;;
73113;SDS011;61301;51.956;5.876;2023-09-19T00:45:46;5.15;;;1.50;;
73113;SDS011;61301;51.956;5.876;2023-09-19T00:50:41;8.63;;;1.65;;
73113;SDS011;61301;51.956;5.876;2023-09-19T00:53:08;4.78;;;1.55;;
73113;SDS011;61301;51.956;5.876;2023-09-19T00:55:35;4.20;;;1.50;;
73113;SDS011;61301;51.956;5.876;2023-09-19T00:58:03;6.78;;;1.33;;
73113;SDS011;61301;51.956;5.876;2023-09-19T01:00:32;8.65;;;1.83;;
73113;SDS011;61301;51.956;5.876;2023-09-19T01:03:00;7.28;;;1.90;;
73113;SDS011;61301;51.956;5.876;2023-09-19T01:05:29;6.00;;;1.60;;
73113;SDS011;61301;51.956;5.876;2023-09-19T01:07:55;4.53;;;1.42;;
73113;SDS011;61301;51.956;5.876;2023-09-19T01:10:21;7.03;;;1.60;;
73113;SDS011;61301;51.956;5.876;2023-09-19T01:12:57;6.82;;;1.95;;
73113;SDS011;61301;51.956;5.876;2023-09-19T01:30:09;8.85;;;2.15;;
73113;SDS011;61301;51.956;5.876;2023-09-19T01:32:36;7.70;;;2.17;;
73113;SDS011;61301;51.956;5.876;2023-09-19T01:35:04;5.75;;;2.08;;
73113;SDS011;61301;51.956;5.876;2023-09-19T01:37:31;7.70;;;1.80;;
73113;SDS011;61301;51.956;5.876;2023-09-19T01:40:01;9.95;;;2.53;;
73113;SDS011;61301;51.956;5.876;2023-09-19T01:51:00;8.50;;;2.38;;
73113;SDS011;61301;51.956;5.876;2023-09-19T01:53:30;8.88;;;2.72;;
73113;SDS011;61301;51.956;5.876;2023-09-19T01:56:01;6.20;;;2.00;;
73113;SDS011;61301;51.956;5.876;2023-09-19T02:01:08;11.38;;;2.88;;
73113;SDS011;61301;51.956;5.876;2023-09-19T02:03:37;10.02;;;2.42;;
73113;SDS011;61301;51.956;5.876;2023-09-19T02:06:05;10.73;;;2.03;;
73113;SDS011;61301;51.956;5.876;2023-09-19T02:08:36;5.70;;;1.60;;
73113;SDS011;61301;51.956;5.876;2023-09-19T02:11:02;9.52;;;2.38;;
73113;SDS011;61301;51.956;5.876;2023-09-19T02:13:28;6.88;;;2.38;;
73113;SDS011;61301;51.956;5.876;2023-09-19T02:15:57;8.00;;;2.05;;
73113;SDS011;61301;51.956;5.876;2023-09-19T02:18:23;9.18;;;2.15;;
73113;SDS011;61301;51.956;5.876;2023-09-19T02:20:49;9.80;;;2.80;;
73113;SDS011;61301;51.956;5.876;2023-09-19T02:23:16;8.80;;;2.30;;
73113;SDS011;61301;51.956;5.876;2023-09-19T02:25:43;7.90;;;2.10;;
73113;SDS011;61301;51.956;5.876;2023-09-19T02:28:17;7.28;;;1.77;;
73113;SDS011;61301;51.956;5.876;2023-09-19T02:30:43;6.32;;;2.00;;
73113;SDS011;61301;51.956;5.876;2023-09-19T02:33:12;6.47;;;1.70;;
73113;SDS011;61301;51.956;5.876;2023-09-19T02:35:39;6.22;;;1.58;;
73113;SDS011;61301;51.956;5.876;2023-09-19T02:38:05;5.22;;;1.50;;
73113;SDS011;61301;51.956;5.876;2023-09-19T02:40:33;6.03;;;1.58;;
73113;SDS011;61301;51.956;5.876;2023-09-19T02:43:04;12.73;;;2.03;;
73113;SDS011;61301;51.956;5.876;2023-09-19T02:45:30;5.95;;;2.08;;
73113;SDS011;61301;51.956;5.876;2023-09-19T02:47:57;7.43;;;2.00;;
73113;SDS011;61301;51.956;5.876;2023-09-19T02:50:23;7.03;;;1.77;;
73113;SDS011;61301;51.956;5.876;2023-09-19T02:52:49;6.43;;;1.65;;
73113;SDS011;61301;51.956;5.876;2023-09-19T02:55:16;7.50;;;2.00;;
73113;SDS011;61301;51.956;5.876;2023-09-19T02:57:47;7.80;;;2.05;;
73113;SDS011;61301;51.956;5.876;2023-09-19T03:00:14;7.35;;;1.90;;
73113;SDS011;61301;51.956;5.876;2023-09-19T03:02:40;8.88;;;2.13;;
73113;SDS011;61301;51.956;5.876;2023-09-19T03:05:07;6.82;;;1.98;;
73113;SDS011;61301;51.956;5.876;2023-09-19T03:07:33;7.07;;;1.63;;
73113;SDS011;61301;51.956;5.876;2023-09-19T03:10:00;5.13;;;1.42;;
73113;SDS011;61301;51.956;5.876;2023-09-19T03:12:26;4.75;;;1.45;;
73113;SDS011;61301;51.956;5.876;2023-09-19T03:14:52;4.78;;;1.60;;
73113;SDS011;61301;51.956;5.876;2023-09-19T03:17:19;5.65;;;1.80;;
73113;SDS011;61301;51.956;5.876;2023-09-19T03:19:46;5.22;;;1.50;;
73113;SDS011;61301;51.956;5.876;2023-09-19T03:22:13;10.88;;;2.30;;
73113;SDS011;61301;51.956;5.876;2023-09-19T03:24:40;4.50;;;1.40;;
73113;SDS011;61301;51.956;5.876;2023-09-19T03:27:08;6.10;;;2.00;;
73113;SDS011;61301;51.956;5.876;2023-09-19T03:29:35;6.88;;;1.98;;
73113;SDS011;61301;51.956;5.876;2023-09-19T03:32:03;7.03;;;1.83;;
73113;SDS011;61301;51.956;5.876;2023-09-19T03:34:30;8.27;;;2.15;;
73113;SDS011;61301;51.956;5.876;2023-09-19T03:36:57;7.25;;;1.80;;
73113;SDS011;61301;51.956;5.876;2023-09-19T03:39:23;6.93;;;2.28;;
73113;SDS011;61301;51.956;5.876;2023-09-19T03:41:49;5.85;;;2.20;;
73113;SDS011;61301;51.956;5.876;2023-09-19T03:44:15;7.75;;;2.50;;
73113;SDS011;61301;51.956;5.876;2023-09-19T03:46:41;8.13;;;2.45;;
73113;SDS011;61301;51.956;5.876;2023-09-19T03:49:07;7.18;;;1.77;;
73113;SDS011;61301;51.956;5.876;2023-09-19T03:51:34;4.28;;;1.60;;
73113;SDS011;61301;51.956;5.876;2023-09-19T03:54:00;8.52;;;2.85;;
73113;SDS011;61301;51.956;5.876;2023-09-19T03:56:26;6.53;;;2.03;;
73113;SDS011;61301;51.956;5.876;2023-09-19T03:58:54;9.45;;;2.20;;
73113;SDS011;61301;51.956;5.876;2023-09-19T04:01:20;6.72;;;2.22;;
73113;SDS011;61301;51.956;5.876;2023-09-19T04:03:47;9.63;;;1.95;;
73113;SDS011;61301;51.956;5.876;2023-09-19T04:06:14;5.82;;;1.88;;
73113;SDS011;61301;51.956;5.876;2023-09-19T04:08:41;4.70;;;1.75;;
73113;SDS011;61301;51.956;5.876;2023-09-19T04:11:08;5.28;;;1.60;;
73113;SDS011;61301;51.956;5.876;2023-09-19T04:13:34;7.47;;;2.10;;
73113;SDS011;61301;51.956;5.876;2023-09-19T04:16:00;7.70;;;1.50;;
73113;SDS011;61301;51.956;5.876;2023-09-19T04:18:26;5.68;;;1.88;;
73113;SDS011;61301;51.956;5.876;2023-09-19T04:20:53;7.13;;;2.10;;
73113;SDS011;61301;51.956;5.876;2023-09-19T04:23:19;5.75;;;1.88;;
73113;SDS011;61301;51.956;5.876;2023-09-19T04:25:46;8.10;;;1.73;;
73113;SDS011;61301;51.956;5.876;2023-09-19T04:28:12;5.93;;;1.73;;
73113;SDS011;61301;51.956;5.876;2023-09-19T04:30:38;9.40;;;1.70;;
73113;SDS011;61301;51.956;5.876;2023-09-19T04:33:07;5.63;;;1.65;;
73113;SDS011;61301;51.956;5.876;2023-09-19T04:35:33;10.13;;;2.28;;
73113;SDS011;61301;51.956;5.876;2023-09-19T04:38:00;12.00;;;2.10;;
73113;SDS011;61301;51.956;5.876;2023-09-19T04:40:26;6.65;;;1.70;;
73113;SDS011;61301;51.956;5.876;2023-09-19T04:42:53;9.88;;;1.83;;
73113;SDS011;61301;51.956;5.876;2023-09-19T04:45:22;6.55;;;1.90;;
73113;SDS011;61301;51.956;5.876;2023-09-19T04:47:49;6.60;;;1.52;;
73113;SDS011;61301;51.956;5.876;2023-09-19T04:50:15;5.00;;;1.50;;
73113;SDS011;61301;51.956;5.876;2023-09-19T04:52:45;12.45;;;2.13;;
73113;SDS011;61301;51.956;5.876;2023-09-19T04:55:17;8.60;;;2.25;;
73113;SDS011;61301;51.956;5.876;2023-09-19T04:57:44;5.55;;;1.85;;
73113;SDS011;61301;51.956;5.876;2023-09-19T05:00:15;6.53;;;2.35;;
73113;SDS011;61301;51.956;5.876;2023-09-19T05:02:42;9.00;;;1.75;;
73113;SDS011;61301;51.956;5.876;2023-09-19T05:05:09;6.78;;;1.90;;
73113;SDS011;61301;51.956;5.876;2023-09-19T05:07:42;6.72;;;1.58;;
73113;SDS011;61301;51.956;5.876;2023-09-19T05:10:09;5.82;;;1.23;;
73113;SDS011;61301;51.956;5.876;2023-09-19T05:12:40;6.60;;;1.77;;
73113;SDS011;61301;51.956;5.876;2023-09-19T05:15:06;4.72;;;1.60;;
73113;SDS011;61301;51.956;5.876;2023-09-19T05:17:34;3.83;;;1.30;;
73113;SDS011;61301;51.956;5.876;2023-09-19T05:20:03;5.18;;;1.63;;
73113;SDS011;61301;51.956;5.876;2023-09-19T05:22:59;5.32;;;1.60;;
73113;SDS011;61301;51.956;5.876;2023-09-19T05:25:31;7.47;;;1.40;;
73113;SDS011;61301;51.956;5.876;2023-09-19T05:27:58;5.30;;;1.58;;
73113;SDS011;61301;51.956;5.876;2023-09-19T05:30:25;6.30;;;1.80;;
73113;SDS011;61301;51.956;5.876;2023-09-19T05:32:53;7.55;;;1.77;;
73113;SDS011;61301;51.956;5.876;2023-09-19T05:35:19;5.22;;;1.58;;
73113;SDS011;61301;51.956;5.876;2023-09-19T05:37:50;7.82;;;2.80;;
73113;SDS011;61301;51.956;5.876;2023-09-19T05:40:17;8.57;;;2.25;;
73113;SDS011;61301;51.956;5.876;2023-09-19T05:42:43;7.70;;;1.70;;
73113;SDS011;61301;51.956;5.876;2023-09-19T05:45:11;11.40;;;2.78;;
73113;SDS011;61301;51.956;5.876;2023-09-19T05:47:44;5.03;;;1.27;;
73113;SDS011;61301;51.956;5.876;2023-09-19T05:50:11;5.63;;;1.55;;
73113;SDS011;61301;51.956;5.876;2023-09-19T05:52:38;8.70;;;1.60;;
73113;SDS011;61301;51.956;5.876;2023-09-19T05:55:04;8.32;;;2.05;;
73113;SDS011;61301;51.956;5.876;2023-09-19T05:57:32;10.57;;;2.10;;
73113;SDS011;61301;51.956;5.876;2023-09-19T05:59:59;10.00;;;2.20;;
73113;SDS011;61301;51.956;5.876;2023-09-19T06:02:25;6.20;;;2.33;;
73113;SDS011;61301;51.956;5.876;2023-09-19T06:04:54;8.48;;;2.10;;
73113;SDS011;61301;51.956;5.876;2023-09-19T06:07:24;12.52;;;2.45;;
73113;SDS011;61301;51.956;5.876;2023-09-19T06:09:52;8.57;;;1.80;;
73113;SDS011;61301;51.956;5.876;2023-09-19T06:12:21;8.00;;;2.50;;
73113;SDS011;61301;51.956;5.876;2023-09-19T06:14:47;6.28;;;1.80;;
73113;SDS011;61301;51.956;5.876;2023-09-19T06:17:14;7.43;;;2.33;;
73113;SDS011;61301;51.956;5.876;2023-09-19T06:19:40;10.07;;;2.15;;
73113;SDS011;61301;51.956;5.876;2023-09-19T06:22:14;5.68;;;2.10;;
73113;SDS011;61301;51.956;5.876;2023-09-19T06:24:44;10.48;;;2.10;;
73113;SDS011;61301;51.956;5.876;2023-09-19T06:27:12;7.68;;;2.17;;
73113;SDS011;61301;51.956;5.876;2023-09-19T06:29:39;6.38;;;2.05;;
73113;SDS011;61301;51.956;5.876;2023-09-19T06:32:08;6.10;;;1.98;;
73113;SDS011;61301;51.956;5.876;2023-09-19T06:34:34;8.90;;;2.25;;
73113;SDS011;61301;51.956;5.876;2023-09-19T06:37:00;5.20;;;1.70;;
73113;SDS011;61301;51.956;5.876;2023-09-19T06:39:26;6.53;;;2.10;;
73113;SDS011;61301;51.956;5.876;2023-09-19T06:41:53;9.38;;;2.33;;
73113;SDS011;61301;51.956;5.876;2023-09-19T06:44:19;5.18;;;1.80;;
73113;SDS011;61301;51.956;5.876;2023-09-19T06:46:47;7.30;;;1.80;;
73113;SDS011;61301;51.956;5.876;2023-09-19T06:49:17;10.82;;;2.25;;
73113;SDS011;61301;51.956;5.876;2023-09-19T06:51:43;6.75;;;1.70;;
73113;SDS011;61301;51.956;5.876;2023-09-19T06:54:09;7.68;;;2.03;;
73113;SDS011;61301;51.956;5.876;2023-09-19T06:56:36;9.50;;;2.17;;
73113;SDS011;61301;51.956;5.876;2023-09-19T06:59:02;5.13;;;1.60;;
73113;SDS011;61301;51.956;5.876;2023-09-19T07:01:29;6.80;;;1.85;;
73113;SDS011;61301;51.956;5.876;2023-09-19T07:03:55;10.98;;;2.38;;
73113;SDS011;61301;51.956;5.876;2023-09-19T07:06:21;12.55;;;2.03;;
73113;SDS011;61301;51.956;5.876;2023-09-19T07:08:47;9.55;;;2.03;;
73113;SDS011;61301;51.956;5.876;2023-09-19T07:11:14;8.77;;;2.40;;
73113;SDS011;61301;51.956;5.876;2023-09-19T07:13:41;9.65;;;2.22;;
73113;SDS011;61301;51.956;5.876;2023-09-19T07:16:07;6.68;;;2.55;;
73113;SDS011;61301;51.956;5.876;2023-09-19T07:18:36;12.25;;;2.83;;
73113;SDS011;61301;51.956;5.876;2023-09-19T07:21:02;11.25;;;2.20;;
73113;SDS011;61301;51.956;5.876;2023-09-19T07:23:31;7.50;;;2.17;;
73113;SDS011;61301;51.956;5.876;2023-09-19T07:26:00;7.80;;;2.22;;
73113;SDS011;61301;51.956;5.876;2023-09-19T07:28:27;10.35;;;2.42;;
73113;SDS011;61301;51.956;5.876;2023-09-19T07:30:53;8.52;;;2.15;;
73113;SDS011;61301;51.956;5.876;2023-09-19T07:33:20;9.40;;;2.22;;
73113;SDS011;61301;51.956;5.876;2023-09-19T07:35:46;7.45;;;2.13;;
73113;SDS011;61301;51.956;5.876;2023-09-19T07:38:12;5.43;;;1.70;;
73113;SDS011;61301;51.956;5.876;2023-09-19T07:40:39;13.57;;;3.42;;
73113;SDS011;61301;51.956;5.876;2023-09-19T07:43:05;7.78;;;2.33;;
73113;SDS011;61301;51.956;5.876;2023-09-19T07:45:32;13.65;;;2.50;;
73113;SDS011;61301;51.956;5.876;2023-09-19T07:47:58;7.05;;;2.03;;
73113;SDS011;61301;51.956;5.876;2023-09-19T07:50:27;9.05;;;2.25;;
73113;SDS011;61301;51.956;5.876;2023-09-19T07:52:54;10.38;;;2.20;;
73113;SDS011;61301;51.956;5.876;2023-09-19T07:55:22;11.77;;;2.90;;
73113;SDS011;61301;51.956;5.876;2023-09-19T07:57:51;12.65;;;2.75;;
73113;SDS011;61301;51.956;5.876;2023-09-19T08:00:21;6.47;;;2.10;;
73113;SDS011;61301;51.956;5.876;2023-09-19T08:02:47;9.10;;;2.17;;
73113;SDS011;61301;51.956;5.876;2023-09-19T08:05:13;10.10;;;2.30;;
73113;SDS011;61301;51.956;5.876;2023-09-19T08:07:44;11.40;;;2.05;;
73113;SDS011;61301;51.956;5.876;2023-09-19T08:10:22;11.73;;;2.75;;
73113;SDS011;61301;51.956;5.876;2023-09-19T08:12:48;9.35;;;3.03;;
73113;SDS011;61301;51.956;5.876;2023-09-19T08:15:19;9.35;;;2.30;;
73113;SDS011;61301;51.956;5.876;2023-09-19T08:17:45;12.45;;;3.10;;
73113;SDS011;61301;51.956;5.876;2023-09-19T08:20:12;9.20;;;2.22;;
73113;SDS011;61301;51.956;5.876;2023-09-19T08:22:48;12.98;;;3.22;;
73113;SDS011;61301;51.956;5.876;2023-09-19T08:25:15;12.70;;;2.50;;
73113;SDS011;61301;51.956;5.876;2023-09-19T08:27:45;11.60;;;2.55;;
73113;SDS011;61301;51.956;5.876;2023-09-19T08:30:14;10.05;;;2.63;;
73113;SDS011;61301;51.956;5.876;2023-09-19T08:32:40;9.80;;;2.60;;
73113;SDS011;61301;51.956;5.876;2023-09-19T08:35:08;9.70;;;2.42;;
73113;SDS011;61301;51.956;5.876;2023-09-19T08:37:38;12.25;;;2.85;;
73113;SDS011;61301;51.956;5.876;2023-09-19T08:40:04;10.48;;;2.50;;
73113;SDS011;61301;51.956;5.876;2023-09-19T08:42:47;11.52;;;3.00;;
73113;SDS011;61301;51.956;5.876;2023-09-19T08:45:20;9.60;;;2.45;;
73113;SDS011;61301;51.956;5.876;2023-09-19T08:50:47;10.60;;;2.60;;
73113;SDS011;61301;51.956;5.876;2023-09-19T08:53:19;7.63;;;2.38;;
73113;SDS011;61301;51.956;5.876;2023-09-19T08:55:53;12.23;;;3.15;;
73113;SDS011;61301;51.956;5.876;2023-09-19T08:58:21;10.70;;;2.80;;
73113;SDS011;61301;51.956;5.876;2023-09-19T09:00:55;10.90;;;2.97;;
73113;SDS011;61301;51.956;5.876;2023-09-19T09:03:23;10.85;;;2.30;;
73113;SDS011;61301;51.956;5.876;2023-09-19T09:05:51;14.32;;;3.33;;
73113;SDS011;61301;51.956;5.876;2023-09-19T09:08:18;11.30;;;2.80;;
73113;SDS011;61301;51.956;5.876;2023-09-19T09:10:47;10.68;;;2.70;;
73113;SDS011;61301;51.956;5.876;2023-09-19T09:13:13;10.98;;;2.30;;
73113;SDS011;61301;51.956;5.876;2023-09-19T09:15:41;9.98;;;2.55;;
73113;SDS011;61301;51.956;5.876;2023-09-19T09:18:10;8.75;;;2.17;;
73113;SDS011;61301;51.956;5.876;2023-09-19T09:20:36;11.52;;;2.30;;
73113;SDS011;61301;51.956;5.876;2023-09-19T09:23:02;13.20;;;3.17;;
73113;SDS011;61301;51.956;5.876;2023-09-19T09:26:03;8.30;;;2.72;;
73113;SDS011;61301;51.956;5.876;2023-09-19T09:28:25;9.38;;;2.70;;
73113;SDS011;61301;51.956;5.876;2023-09-19T09:30:54;11.13;;;2.40;;
73113;SDS011;61301;51.956;5.876;2023-09-19T09:33:21;11.35;;;2.70;;
73113;SDS011;61301;51.956;5.876;2023-09-19T09:35:48;9.45;;;2.17;;
73113;SDS011;61301;51.956;5.876;2023-09-19T09:38:18;9.70;;;2.60;;
73113;SDS011;61301;51.956;5.876;2023-09-19T09:40:46;7.43;;;1.90;;
73113;SDS011;61301;51.956;5.876;2023-09-19T09:43:30;7.65;;;1.90;;
73113;SDS011;61301;51.956;5.876;2023-09-19T09:46:08;11.60;;;2.90;;
73113;SDS011;61301;51.956;5.876;2023-09-19T09:48:44;10.65;;;2.40;;
73113;SDS011;61301;51.956;5.876;2023-09-19T09:51:31;8.02;;;2.42;;
73113;SDS011;61301;51.956;5.876;2023-09-19T09:54:15;6.53;;;1.95;;
73113;SDS011;61301;51.956;5.876;2023-09-19T09:56:57;9.02;;;2.45;;
73113;SDS011;61301;51.956;5.876;2023-09-19T09:59:57;7.75;;;2.50;;
73113;SDS011;61301;51.956;5.876;2023-09-19T10:02:41;8.48;;;2.67;;
73113;SDS011;61301;51.956;5.876;2023-09-19T10:05:11;10.77;;;2.47;;
73113;SDS011;61301;51.956;5.876;2023-09-19T10:07:53;8.30;;;2.15;;
73113;SDS011;61301;51.956;5.876;2023-09-19T10:13:07;9.77;;;2.25;;
73113;SDS011;61301;51.956;5.876;2023-09-19T10:15:38;9.02;;;3.10;;
73113;SDS011;61301;51.956;5.876;2023-09-19T10:18:06;9.25;;;2.50;;
73113;SDS011;61301;51.956;5.876;2023-09-19T10:20:38;7.88;;;2.42;;
73113;SDS011;61301;51.956;5.876;2023-09-19T10:23:10;8.15;;;2.50;;
73113;SDS011;61301;51.956;5.876;2023-09-19T10:25:39;7.68;;;2.30;;
73113;SDS011;61301;51.956;5.876;2023-09-19T10:28:07;10.93;;;3.38;;
73113;SDS011;61301;51.956;5.876;2023-09-19T10:30:38;10.65;;;2.83;;
73113;SDS011;61301;51.956;5.876;2023-09-19T10:33:11;11.52;;;2.67;;
73113;SDS011;61301;51.956;5.876;2023-09-19T10:35:39;6.63;;;2.10;;
73113;SDS011;61301;51.956;5.876;2023-09-19T10:38:10;9.43;;;2.85;;
73113;SDS011;61301;51.956;5.876;2023-09-19T10:40:38;10.27;;;2.35;;
73113;SDS011;61301;51.956;5.876;2023-09-19T10:43:13;11.02;;;2.22;;
73113;SDS011;61301;51.956;5.876;2023-09-19T10:45:44;9.70;;;1.73;;
73113;SDS011;61301;51.956;5.876;2023-09-19T10:48:15;10.65;;;2.65;;
73113;SDS011;61301;51.956;5.876;2023-09-19T10:50:51;10.23;;;2.38;;
73113;SDS011;61301;51.956;5.876;2023-09-19T10:53:25;7.72;;;2.15;;
73113;SDS011;61301;51.956;5.876;2023-09-19T10:55:57;11.65;;;2.75;;
73113;SDS011;61301;51.956;5.876;2023-09-19T10:58:28;8.60;;;2.60;;
73113;SDS011;61301;51.956;5.876;2023-09-19T11:00:58;7.07;;;2.05;;
73113;SDS011;61301;51.956;5.876;2023-09-19T11:03:35;9.68;;;2.50;;
73113;SDS011;61301;51.956;5.876;2023-09-19T11:06:15;9.90;;;2.13;;
73113;SDS011;61301;51.956;5.876;2023-09-19T11:08:50;8.05;;;2.00;;
73113;SDS011;61301;51.956;5.876;2023-09-19T11:30:35;6.85;;;1.77;;
73113;SDS011;61301;51.956;5.876;2023-09-19T11:33:23;9.18;;;2.08;;
73113;SDS011;61301;51.956;5.876;2023-09-19T11:36:03;6.43;;;2.05;;
73113;SDS011;61301;51.956;5.876;2023-09-19T11:46:20;7.03;;;2.17;;
73113;SDS011;61301;51.956;5.876;2023-09-19T11:48:47;9.15;;;1.90;;
73113;SDS011;61301;51.956;5.876;2023-09-19T11:51:15;9.40;;;2.50;;
73113;SDS011;61301;51.956;5.876;2023-09-19T11:53:46;10.73;;;2.22;;
73113;SDS011;61301;51.956;5.876;2023-09-19T11:56:18;9.07;;;1.90;;
73113;SDS011;61301;51.956;5.876;2023-09-19T11:58:50;12.55;;;5.43;;
73113;SDS011;61301;51.956;5.876;2023-09-19T12:03:52;7.60;;;2.00;;
73113;SDS011;61301;51.956;5.876;2023-09-19T12:06:19;5.20;;;1.63;;
73113;SDS011;61301;51.956;5.876;2023-09-19T12:08:47;5.50;;;1.60;;
73113;SDS011;61301;51.956;5.876;2023-09-19T12:11:14;7.13;;;1.77;;
73113;SDS011;61301;51.956;5.876;2023-09-19T12:13:45;7.78;;;1.88;;
73113;SDS011;61301;51.956;5.876;2023-09-19T12:16:15;8.15;;;2.00;;
73113;SDS011;61301;51.956;5.876;2023-09-19T12:18:45;5.13;;;1.70;;
73113;SDS011;61301;51.956;5.876;2023-09-19T12:26:44;5.88;;;1.30;;
73113;SDS011;61301;51.956;5.876;2023-09-19T12:29:14;5.28;;;1.10;;
73113;SDS011;61301;51.956;5.876;2023-09-19T12:31:58;4.95;;;1.88;;
73113;SDS011;61301;51.956;5.876;2023-09-19T12:34:26;4.47;;;1.08;;
73113;SDS011;61301;51.956;5.876;2023-09-19T12:37:04;5.68;;;1.70;;
73113;SDS011;61301;51.956;5.876;2023-09-19T12:39:38;4.40;;;1.30;;
73113;SDS011;61301;51.956;5.876;2023-09-19T12:42:07;8.63;;;1.42;;
73113;SDS011;61301;51.956;5.876;2023-09-19T12:44:36;6.60;;;1.27;;
73113;SDS011;61301;51.956;5.876;2023-09-19T12:47:10;5.53;;;1.40;;
73113;SDS011;61301;51.956;5.876;2023-09-19T12:50:04;5.03;;;1.38;;
73113;SDS011;61301;51.956;5.876;2023-09-19T12:52:36;4.05;;;1.10;;
73113;SDS011;61301;51.956;5.876;2023-09-19T12:55:03;4.65;;;1.38;;
73113;SDS011;61301;51.956;5.876;2023-09-19T12:57:30;4.90;;;1.00;;
73113;SDS011;61301;51.956;5.876;2023-09-19T13:00:01;3.00;;;0.88;;
73113;SDS011;61301;51.956;5.876;2023-09-19T13:02:28;4.75;;;0.98;;
73113;SDS011;61301;51.956;5.876;2023-09-19T13:04:54;10.30;;;1.58;;
73113;SDS011;61301;51.956;5.876;2023-09-19T13:07:43;4.80;;;1.40;;
73113;SDS011;61301;51.956;5.876;2023-09-19T13:10:14;3.85;;;1.10;;
73113;SDS011;61301;51.956;5.876;2023-09-19T13:12:42;4.38;;;1.33;;
73113;SDS011;61301;51.956;5.876;2023-09-19T13:15:14;3.63;;;1.00;;
73113;SDS011;61301;51.956;5.876;2023-09-19T13:17:46;4.55;;;1.00;;
73113;SDS011;61301;51.956;5.876;2023-09-19T13:20:23;5.78;;;1.88;;
73113;SDS011;61301;51.956;5.876;2023-09-19T13:22:53;2.75;;;1.00;;
73113;SDS011;61301;51.956;5.876;2023-09-19T13:25:24;3.22;;;0.95;;
73113;SDS011;61301;51.956;5.876;2023-09-19T13:27:51;5.40;;;1.45;;
73113;SDS011;61301;51.956;5.876;2023-09-19T13:30:22;3.17;;;0.90;;
73113;SDS011;61301;51.956;5.876;2023-09-19T13:32:52;4.63;;;1.23;;
73113;SDS011;61301;51.956;5.876;2023-09-19T13:35:34;4.32;;;1.10;;
73113;SDS011;61301;51.956;5.876;2023-09-19T13:37:59;4.90;;;0.93;;
73113;SDS011;61301;51.956;5.876;2023-09-19T13:40:26;2.45;;;0.88;;
73113;SDS011;61301;51.956;5.876;2023-09-19T13:42:56;3.17;;;0.93;;
73113;SDS011;61301;51.956;5.876;2023-09-19T13:45:22;3.72;;;1.15;;
73113;SDS011;61301;51.956;5.876;2023-09-19T13:47:50;2.85;;;1.00;;
73113;SDS011;61301;51.956;5.876;2023-09-19T13:50:16;2.10;;;0.82;;
73113;SDS011;61301;51.956;5.876;2023-09-19T13:52:44;4.72;;;0.90;;
73113;SDS011;61301;51.956;5.876;2023-09-19T13:55:12;1.95;;;1.05;;
73113;SDS011;61301;51.956;5.876;2023-09-19T13:57:40;4.32;;;0.77;;
73113;SDS011;61301;51.956;5.876;2023-09-19T14:00:06;2.60;;;0.70;;
73113;SDS011;61301;51.956;5.876;2023-09-19T14:02:37;4.22;;;1.35;;
73113;SDS011;61301;51.956;5.876;2023-09-19T14:05:04;2.55;;;1.00;;
73113;SDS011;61301;51.956;5.876;2023-09-19T14:07:30;5.35;;;1.42;;
73113;SDS011;61301;51.956;5.876;2023-09-19T14:09:56;4.63;;;1.10;;
73113;SDS011;61301;51.956;5.876;2023-09-19T14:12:22;4.32;;;1.08;;
73113;SDS011;61301;51.956;5.876;2023-09-19T14:14:48;3.65;;;0.95;;
73113;SDS011;61301;51.956;5.876;2023-09-19T14:17:16;4.57;;;1.10;;
73113;SDS011;61301;51.956;5.876;2023-09-19T14:19:43;4.20;;;0.90;;
73113;SDS011;61301;51.956;5.876;2023-09-19T14:22:10;5.88;;;1.23;;
73113;SDS011;61301;51.956;5.876;2023-09-19T14:24:36;3.35;;;1.38;;
73113;SDS011;61301;51.956;5.876;2023-09-19T14:27:02;3.85;;;0.80;;
73113;SDS011;61301;51.956;5.876;2023-09-19T14:29:29;1.50;;;0.65;;
73113;SDS011;61301;51.956;5.876;2023-09-19T14:31:56;7.82;;;0.90;;
73113;SDS011;61301;51.956;5.876;2023-09-19T14:34:23;5.47;;;0.80;;
73113;SDS011;61301;51.956;5.876;2023-09-19T14:36:49;2.15;;;0.95;;
73113;SDS011;61301;51.956;5.876;2023-09-19T14:39:15;2.55;;;1.10;;
73113;SDS011;61301;51.956;5.876;2023-09-19T14:41:41;2.35;;;0.98;;
73113;SDS011;61301;51.956;5.876;2023-09-19T14:44:07;2.17;;;0.75;;
73113;SDS011;61301;51.956;5.876;2023-09-19T14:46:36;3.53;;;0.95;;
73113;SDS011;61301;51.956;5.876;2023-09-19T14:49:02;3.10;;;0.90;;
73113;SDS011;61301;51.956;5.876;2023-09-19T14:51:30;1.98;;;0.82;;
73113;SDS011;61301;51.956;5.876;2023-09-19T14:53:56;2.30;;;0.77;;
73113;SDS011;61301;51.956;5.876;2023-09-19T14:56:23;2.40;;;0.70;;
73113;SDS011;61301;51.956;5.876;2023-09-19T14:58:51;2.90;;;1.05;;
73113;SDS011;61301;51.956;5.876;2023-09-19T15:01:17;3.45;;;1.10;;
73113;SDS011;61301;51.956;5.876;2023-09-19T15:03:43;2.72;;;0.90;;
73113;SDS011;61301;51.956;5.876;2023-09-19T15:06:10;2.55;;;1.00;;
73113;SDS011;61301;51.956;5.876;2023-09-19T15:08:40;2.60;;;1.30;;
73113;SDS011;61301;51.956;5.876;2023-09-19T15:11:11;4.00;;;1.20;;
73113;SDS011;61301;51.956;5.876;2023-09-19T15:13:38;11.15;;;1.27;;
73113;SDS011;61301;51.956;5.876;2023-09-19T15:16:05;3.60;;;1.00;;
73113;SDS011;61301;51.956;5.876;2023-09-19T15:18:39;3.08;;;1.17;;
73113;SDS011;61301;51.956;5.876;2023-09-19T15:21:07;2.75;;;1.10;;
73113;SDS011;61301;51.956;5.876;2023-09-19T15:23:35;3.05;;;1.10;;
73113;SDS011;61301;51.956;5.876;2023-09-19T15:26:03;3.95;;;1.23;;
73113;SDS011;61301;51.956;5.876;2023-09-19T15:28:29;2.45;;;0.95;;
73113;SDS011;61301;51.956;5.876;2023-09-19T15:30:58;5.75;;;1.08;;
73113;SDS011;61301;51.956;5.876;2023-09-19T15:33:28;2.83;;;1.10;;
73113;SDS011;61301;51.956;5.876;2023-09-19T15:36:02;6.43;;;1.42;;
73113;SDS011;61301;51.956;5.876;2023-09-19T15:41:22;4.97;;;1.20;;
73113;SDS011;61301;51.956;5.876;2023-09-19T15:43:49;4.40;;;1.08;;
73113;SDS011;61301;51.956;5.876;2023-09-19T15:46:15;3.67;;;1.27;;
73113;SDS011;61301;51.956;5.876;2023-09-19T15:48:41;2.60;;;1.15;;
73113;SDS011;61301;51.956;5.876;2023-09-19T15:51:08;7.00;;;1.60;;
73113;SDS011;61301;51.956;5.876;2023-09-19T15:53:46;4.30;;;1.00;;
73113;SDS011;61301;51.956;5.876;2023-09-19T15:56:14;4.07;;;1.20;;
73113;SDS011;61301;51.956;5.876;2023-09-19T15:58:43;2.65;;;1.15;;
73113;SDS011;61301;51.956;5.876;2023-09-19T16:01:11;5.57;;;1.20;;
73113;SDS011;61301;51.956;5.876;2023-09-19T16:03:38;4.45;;;1.60;;
73113;SDS011;61301;51.956;5.876;2023-09-19T16:06:12;5.38;;;1.48;;
73113;SDS011;61301;51.956;5.876;2023-09-19T16:08:39;5.53;;;1.38;;
73113;SDS011;61301;51.956;5.876;2023-09-19T16:11:06;3.63;;;1.20;;